Latest Weather Observations for Dunalley

IDT60901

Issued at 12:51 pm EDT Monday 30 November 2020 (issued every 10 minutes, with the page automatically refreshed every 10 minutes)

About weather observations | Map of Hobart area stations | Latest observations for Hobart area | Other Formats
Station Details ID: 094254 Name: DUNALLEY (STROUD POINT) Lat: -42.90 Lon: 147.79 Height: 12.43 m
Data from the previous 72 hours. | See also: Recent months at Dunalley
Date/Time
EDT
Temp
°C
App
Temp
°C
Dew
Point
°C
Rel
Hum
%
Delta-T
°C
Wind Press
QNH
hPa
Press
MSL
hPa
Rain since
9am
mm
Dir  Spd
km/h
Gust
km/h
Spd
kts
Gust
kts
30/12:30pm 18.1 12.2 9.2 56 4.7 ENE 30 41 16 22 1013.9 1013.9 0.0
30/12:00pm 17.5 11.7 7.8 53 4.9 ENE 28 35 15 19 1014.5 1014.5 0.0
30/11:30am 18.0 12.2 8.0 52 5.1 NE 28 33 15 18 1015.2 1015.2 0.0
30/11:00am 18.6 14.5 8.0 50 5.4 ENE 19 26 10 14 1015.4 1015.4 0.0
30/10:30am 17.4 14.2 6.9 50 5.2 E 13 19 7 10 1015.6 1015.6 0.0
30/10:00am 17.1 14.1 6.0 48 5.4 NNE 11 17 6 9 1015.7 1015.7 0.0
30/09:30am 16.0 13.7 5.9 51 4.9 W 7 11 4 6 1015.6 1015.6 0.0
30/09:00am 15.7 13.6 5.6 51 4.8 WNW 6 9 3 5 1015.6 1015.6 0.2
30/08:30am 15.3 13.5 5.2 51 4.8 WNW 4 7 2 4 1015.5 1015.5 0.2
30/08:00am 14.3 12.1 5.4 55 4.2 W 6 11 3 6 1015.2 1015.2 0.2
30/07:30am 13.8 11.4 5.4 57 3.9 WNW 7 11 4 6 1015.0 1015.0 0.2
30/07:00am 13.0 10.7 5.9 62 3.3 WNW 7 9 4 5 1014.6 1014.6 0.2
30/06:30am 11.6 8.6 5.9 68 2.7 W 11 15 6 8 1014.5 1014.5 0.2
30/06:00am 11.0 8.2 5.1 67 2.7 NW 9 11 5 6 1014.3 1014.3 0.2
30/05:30am 10.6 7.7 4.9 68 2.6 NW 9 13 5 7 1014.0 1014.0 0.2
30/05:00am 10.4 7.5 4.5 67 2.6 NW 9 13 5 7 1013.6 1013.6 0.2
30/04:30am 10.8 7.1 4.5 65 2.8 NNW 13 15 7 8 1013.4 1013.4 0.2
30/04:00am 11.0 8.0 4.2 63 3.0 NW 9 15 5 8 1013.2 1013.2 0.2
30/03:30am 10.5 6.4 4.2 65 2.8 NNW 15 17 8 9 1013.3 1013.3 0.2
30/03:00am 11.0 7.6 4.2 63 3.0 NW 11 15 6 8 1013.4 1013.4 0.2
30/02:30am 11.2 7.1 4.4 63 3.1 NNW 15 19 8 10 1013.6 1013.6 0.2
30/02:00am 11.6 7.6 5.0 64 3.0 NNW 15 19 8 10 1013.5 1013.5 0.2
30/01:30am 12.8 9.1 6.2 64 3.1 WSW 15 24 8 13 1013.4 1013.4 0.2
30/01:00am 13.1 9.7 7.5 69 2.7 SW 15 19 8 10 1013.7 1013.7 0.2
30/12:30am 13.2 9.4 7.6 69 2.7 SSW 17 20 9 11 1013.5 1013.5 0.2
30/12:00am 13.2 9.0 7.4 68 2.8 SSW 19 22 10 12 1013.1 1013.1 0.2
 
Date/Time
EDT
Temp
°C
App
Temp
°C
Dew
Point
°C
Rel
Hum
%
Delta-T
°C
Wind Press
QNH
hPa
Press
MSL
hPa
Rain since
9am
mm
Dir  Spd
km/h
Gust
km/h
Spd
kts
Gust
kts
29/11:30pm 13.6 8.9 7.8 68 2.9 SW 22 30 12 16 1013.0 1013.0 0.2
29/11:00pm 13.9 7.4 8.3 69 2.8 SSW 32 39 17 21 1012.6 1012.6 0.2
29/10:30pm 14.5 8.1 8.5 67 3.0 SW 32 39 17 21 1011.9 1011.9 0.2
29/10:00pm 14.1 8.1 8.5 69 2.8 SW 30 37 16 20 1011.6 1011.6 0.2
29/09:30pm 14.3 7.8 8.9 70 2.7 SSW 33 41 18 22 1010.8 1010.8 0.2
29/09:00pm 14.4 8.3 8.4 67 3.0 SSW 30 37 16 20 1010.4 1010.4 0.2
29/08:30pm 15.2 9.3 8.9 66 3.2 SSW 30 35 16 19 1009.4 1009.4 0.2
29/08:00pm 15.5 8.4 8.0 61 3.8 SSW 35 43 19 23 1008.7 1008.7 0.2
29/07:30pm 16.0 9.5 8.0 59 4.0 SSW 32 39 17 21 1008.3 1008.3 0.2
29/07:00pm 16.6 9.4 7.8 56 4.4 SSW 35 43 19 23 1007.8 1007.8 0.2
29/06:30pm 17.1 9.9 7.5 53 4.8 WSW 35 43 19 23 1007.2 1007.2 0.2
29/06:00pm 17.4 9.1 7.7 53 4.9 WSW 41 50 22 27 1006.7 1006.7 0.2
29/05:30pm 17.9 10.3 7.6 51 5.2 WSW 37 44 20 24 1006.1 1006.1 0.2
29/05:00pm 17.6 10.3 8.7 56 4.6 WSW 37 48 20 26 1005.5 1005.5 0.2
29/04:30pm 17.5 10.9 7.8 53 4.9 SW 32 52 17 28 1004.9 1004.9 0.2
29/04:00pm 17.2 9.0 8.1 55 4.6 SW 41 46 22 25 1004.4 1004.4 0.2
29/03:30pm 16.9 8.2 7.8 55 4.6 SW 43 50 23 27 1003.9 1003.9 0.2
29/03:00pm 16.4 8.9 8.1 58 4.2 SSW 37 46 20 25 1003.2 1003.2 0.2
29/02:30pm 17.0 10.4 8.7 58 4.3 SSW 33 43 18 23 1002.6 1002.6 0.2
29/02:00pm 16.7 10.4 9.1 61 4.0 SSW 32 43 17 23 1002.1 1002.1 0.2
29/01:30pm 16.1 9.4 9.5 65 3.4 SSW 35 43 19 23 1002.0 1002.0 0.2
29/01:00pm 16.6 9.1 8.1 57 4.3 SSW 37 48 20 26 1001.4 1001.4 0.2
29/12:30pm 16.1 9.2 8.8 62 3.7 SSW 35 43 19 23 1001.0 1001.0 0.2
29/12:00pm 16.2 8.6 8.9 62 3.8 SSW 39 48 21 26 1000.8 1000.8 0.2
29/11:30am 16.0 8.6 9.7 66 3.3 SSW 39 48 21 26 1000.5 1000.5 0.2
29/11:00am 15.8 10.1 11.2 74 2.5 SSW 32 41 17 22 1000.4 1000.4 0.2
29/10:30am 14.6 9.2 11.0 79 1.9 SSW 30 37 16 20 1000.8 1000.8 0.2
29/10:00am 14.4 10.4 11.7 84 1.5 SSW 24 30 13 16 1000.8 1000.8 0.2
29/09:30am 13.5 11.0 11.2 86 1.2 S 15 17 8 9 1000.3 1000.3 0.2
29/09:00am 13.2 10.7 10.9 86 1.2 S 15 20 8 11 1000.3 1000.3 3.2
29/08:30am 13.2 9.8 10.7 85 1.3 S 19 22 10 12 1000.1 1000.1 2.8
29/08:00am 13.3 9.7 10.7 84 1.4 S 20 24 11 13 1000.0 1000.0 1.2
29/07:30am 13.3 9.6 10.3 82 1.6 SSW 20 24 11 13 999.9 999.9 0.6
29/07:00am 13.5 9.9 9.9 79 1.9 S 19 24 10 13 999.7 999.7 0.0
29/06:30am 14.2 10.2 10.4 78 2.0 S 22 28 12 15 999.4 999.4 0.0
29/06:00am 14.0 9.9 10.2 78 2.0 S 22 28 12 15 999.3 999.3 0.0
29/05:30am 14.3 10.9 10.5 78 2.0 S 19 24 10 13 999.1 999.1 0.0
29/05:00am 14.2 11.1 10.4 78 2.0 SSE 17 20 9 11 998.8 998.8 0.0
29/04:30am 14.3 11.7 10.7 79 1.9 S 15 20 8 11 999.0 999.0 0.0
29/04:00am 14.1 12.6 10.7 80 1.8 SSE 9 11 5 6 999.4 999.4 0.0
29/03:30am 13.9 12.4 10.5 80 1.8 ENE 9 15 5 8 1000.0 1000.0 0.0
29/03:00am 13.9 12.7 10.3 79 1.9 ENE 7 9 4 5 1000.7 1000.7 0.0
29/02:30am 13.9 12.6 10.1 78 2.0 ENE 7 9 4 5 1001.5 1001.5 0.0
29/02:00am 14.5 13.4 10.5 77 2.1 ENE 7 13 4 7 1001.9 1001.9 0.0
29/01:30am 14.5 12.2 10.3 76 2.2 ENE 13 17 7 9 1002.3 1002.3 0.0
29/01:00am 14.4 13.7 10.2 76 2.2 ESE 4 11 2 6 1002.8 1002.8 0.0
29/12:30am 14.4 12.4 10.2 76 2.2 SE 11 17 6 9 1002.7 1002.7 0.0
29/12:00am 14.4 13.2 10.2 76 2.2 SE 7 11 4 6 1002.7 1002.7 0.0
 
Date/Time
EDT
Temp
°C
App
Temp
°C
Dew
Point
°C
Rel
Hum
%
Delta-T
°C
Wind Press
QNH
hPa
Press
MSL
hPa
Rain since
9am
mm
Dir  Spd
km/h
Gust
km/h
Spd
kts
Gust
kts
28/11:30pm 14.5 13.0 10.5 77 2.1 SE 9 13 5 7 1003.2 1003.2 0.0
28/11:00pm 14.6 13.2 10.8 78 2.0 SE 9 13 5 7 1003.7 1003.7 0.0
28/10:30pm 14.9 13.2 11.3 79 1.9 ESE 11 15 6 8 1003.7 1003.7 0.0
28/10:00pm 14.7 13.0 11.1 79 1.9 ESE 11 15 6 8 1004.3 1004.3 0.0
28/09:30pm 14.6 12.1 11.0 79 1.9 ESE 15 20 8 11 1004.2 1004.2 0.0
28/09:00pm 14.6 11.7 11.0 79 1.9 ESE 17 22 9 12 1004.2 1004.2 0.0
28/08:30pm 14.9 12.1 11.3 79 1.9 ESE 17 20 9 11 1004.1 1004.1 0.0
28/08:00pm 15.5 12.5 12.1 80 1.9 ENE 19 24 10 13 1003.8 1003.8 0.0
28/07:30pm 15.8 11.9 12.0 78 2.1 ENE 24 30 13 16 1003.7 1003.7 0.0
28/07:00pm 16.1 12.1 11.9 76 2.3 ENE 24 32 13 17 1003.2 1003.2 0.0
28/06:30pm 16.4 12.3 11.6 73 2.6 ENE 24 33 13 18 1003.2 1003.2 0.0
28/06:00pm 17.1 12.7 11.8 71 2.9 ENE 26 32 14 17 1003.1 1003.1 0.0
28/05:30pm 17.8 13.0 11.8 68 3.3 ENE 28 35 15 19 1003.2 1003.2 0.0
28/05:00pm 19.3 15.0 12.1 63 4.0 ENE 26 35 14 19 1003.4 1003.4 0.0
28/04:30pm 19.5 15.6 12.0 62 4.2 ENE 24 30 13 16 1003.3 1003.3 0.0
28/04:00pm 20.6 17.4 13.1 62 4.3 NE 22 28 12 15 1003.7 1003.7 0.0
28/03:30pm 20.9 18.7 12.1 57 4.9 NE 15 19 8 10 1003.4 1003.4 0.0
28/03:00pm 20.8 17.8 12.0 57 4.9 ENE 19 33 10 18 1003.3 1003.3 0.0
28/02:30pm 20.3 18.7 8.9 48 6.0 SE 7 11 4 6 1003.8 1003.8 0.0
28/02:00pm 21.4 18.2 8.3 43 6.9 SW 15 19 8 10 1004.2 1004.2 0.0
28/01:30pm 20.6 18.0 7.9 44 6.6 SW 11 15 6 8 1004.5 1004.5 0.0
28/01:00pm 20.8 18.6 6.0 38 7.4 SSW 7 9 4 5 1005.0 1005.0 0.0
28/12:30pm 19.3 16.7 6.1 42 6.5 SW 9 11 5 6 1005.3 1005.3 0.0
28/12:00pm 19.3 15.9 7.7 47 6.0 SW 15 19 8 10 1005.3 1005.3 0.0
28/11:30am 19.9 16.1 8.9 49 5.8 SW 19 20 10 11 1004.7 1004.7 0.0
28/11:00am 18.9 15.7 8.3 50 5.5 SSW 15 19 8 10 1004.4 1004.4 0.0
28/10:30am 18.5 14.2 7.0 47 5.8 SW 19 20 10 11 1004.2 1004.2 0.0
28/10:00am 18.4 14.0 7.2 48 5.7 W 20 28 11 15 1004.8 1004.8 0.0
28/09:30am 18.4 14.2 8.1 51 5.3 W 20 28 11 15 1005.3 1005.3 0.0
28/09:00am 17.7 14.3 7.7 52 5.1 W 15 22 8 12 1004.9 1004.9 0.0
28/08:30am 16.6 14.6 8.6 59 4.1 WNW 9 13 5 7 1004.5 1004.5 0.0
28/08:00am 15.5 13.0 8.3 62 3.7 NW 11 17 6 9 1004.3 1004.3 0.0
28/07:30am 14.9 12.8 8.2 64 3.4 NW 9 15 5 8 1003.8 1003.8 0.0
28/07:00am 14.4 12.6 7.9 65 3.2 NW 7 9 4 5 1003.8 1003.8 0.0
28/06:30am 14.0 11.8 8.0 67 3.0 NW 9 11 5 6 1003.4 1003.4 0.0
28/06:00am 13.8 11.5 7.6 66 3.1 WNW 9 13 5 7 1002.8 1002.8 0.0
28/05:30am 13.2 11.3 7.4 68 2.8 WNW 7 13 4 7 1002.8 1002.8 0.0
28/05:00am 13.6 11.3 7.4 66 3.0 WNW 9 13 5 7 1002.9 1002.9 0.0
28/04:30am 14.4 12.1 9.0 70 2.7 NW 11 17 6 9 1003.5 1003.5 0.0
28/04:00am 13.8 12.8 10.2 79 1.9 NW 6 17 3 9 1003.7 1003.7 0.0
28/03:30am 14.0 13.9 10.8 81 1.7 NW 2 4 1 2 1004.3 1004.3 0.0
28/03:00am 14.3 12.7 11.5 83 1.5 NW 11 15 6 8 1004.3 1004.3 0.0
28/02:30am 13.6 11.5 11.1 85 1.3 NNW 13 15 7 8 1004.4 1004.4 0.0
28/02:00am 13.2 11.7 10.7 85 1.3 SSE 9 9 5 5 1004.1 1004.1 0.0
28/01:30am 13.4 13.3 10.8 84 1.4 SSE 2 4 1 2 1004.1 1004.1 0.0
28/01:00am 13.9 13.5 11.1 83 1.5 SSE 4 4 2 2 1004.2 1004.2 0.0
28/12:30am 13.9 13.4 10.9 82 1.6 SSE 4 6 2 3 1004.1 1004.1 0.0
28/12:00am 14.5 13.3 11.5 82 1.6 SSE 9 13 5 7 1004.5 1004.5 0.0
 
Date/Time
EDT
Temp
°C
App
Temp
°C
Dew
Point
°C
Rel
Hum
%
Delta-T
°C
Wind Press
QNH
hPa
Press
MSL
hPa
Rain since
9am
mm
Dir  Spd
km/h
Gust
km/h
Spd
kts
Gust
kts
27/11:30pm 13.9 12.8 10.7 81 1.7 SE 7 9 4 5 1004.6 1004.6 0.0
27/11:00pm 13.5 12.2 10.1 80 1.8 SE 7 7 4 4 1004.6 1004.6 0.0
27/10:30pm 14.1 13.0 10.5 79 1.9 SE 7 11 4 6 1004.1 1004.1 0.0
27/10:00pm 14.3 12.5 10.7 79 1.9 SE 11 13 6 7 1004.1 1004.1 0.0
27/09:30pm 14.6 11.3 11.0 79 1.9 SSE 19 24 10 13 1004.4 1004.4 0.0
27/09:00pm 14.5 11.0 10.9 79 1.9 SE 20 28 11 15 1003.7 1003.7 0.0
27/08:30pm 14.9 9.0 11.3 79 1.9 S 33 43 18 23 1004.1 1004.1 0.0
27/08:00pm 15.4 10.1 11.2 76 2.3 S 30 39 16 21 1003.7 1003.7 0.0
27/07:30pm 15.5 9.2 11.1 75 2.3 SSE 35 43 19 23 1003.4 1003.4 0.0
27/07:00pm 15.8 8.7 11.0 73 2.6 S 39 48 21 26 1003.3 1003.3 0.0
27/06:40pm 17.0 11.6 10.8 67 3.3 S 30 46 16 25 1003.0 1003.0 0.0
27/06:30pm 22.0 18.0 9.2 44 6.8 NNW 20 33 11 18 1003.1 1003.1 0.0
27/06:00pm 22.5 17.1 8.2 40 7.6 NNW 26 44 14 24 1002.7 1002.7 0.0
27/05:30pm 23.2 17.3 7.7 37 8.1 N 28 44 15 24 1002.7 1002.7 0.0
27/05:00pm 23.5 18.0 7.6 36 8.4 N 26 43 14 23 1003.2 1003.2 0.0
27/04:30pm 23.9 17.5 7.1 34 8.7 N 30 46 16 25 1003.8 1003.8 0.0
27/04:00pm 23.9 17.4 6.7 33 8.9 N 30 54 16 29 1004.4 1004.4 0.0
27/03:31pm 24.8 18.7 6.5 31 9.5 N 28 48 15 26 1005.3 1005.3 0.0
27/03:30pm 24.9 18.9 7.1 32 9.3 N 28 43 15 23 1005.3 1005.3 0.0
27/03:00pm 25.4 19.9 6.1 29 10.0 NNW 24 46 13 25 1006.2 1006.2 0.0
27/02:37pm 24.7 18.9 7.8 34 9.0 NNE 28 56 15 30 1006.6 1006.6 0.0
27/02:30pm 24.7 18.9 6.4 31 9.5 NNE 26 39 14 21 1006.9 1006.9 0.0
27/02:15pm 22.0 16.4 12.0 53 5.6 NE 33 52 18 28 1006.9 1006.9 0.0
27/02:00pm 21.2 13.3 11.5 54 5.4 NE 44 56 24 30 1007.2 1007.2 0.0
27/01:30pm 22.0 15.7 11.1 50 6.0 NE 35 48 19 26 1008.0 1008.0 0.0
27/01:01pm 23.6 16.7 8.8 39 7.9 NNE 35 56 19 30 1008.9 1008.9 0.0
27/01:00pm 23.5 16.1 8.4 38 8.0 NE 37 56 20 30 1008.8 1008.8 0.0

Latest Capital City Observations: Canberra | Sydney | Melbourne | Brisbane | Adelaide | Perth | Hobart | Darwin

Other formats

Comma delimited format used in spreadsheet applications
http://www.bom.gov.au/fwo/IDT60901/IDT60901.94951.axf

JavaScript Object Notation format (JSON) in row-major order
http://www.bom.gov.au/fwo/IDT60901/IDT60901.94951.json

Data quality

Most of these data are generated automatically and are frequently updated. Quality checks on data are not normally performed. It is possible for incorrect values to appear. Refer to information at About Latest Weather Observations and please check the disclaimer before using these data.